Kermit, TX

4:12 AM CDT on May 22, 2015 (GMT -0500)
Winkler County | | Change Station
CLOSE
Current Station
Airport
Location: Wink,
Elevation: 2822 ft
Nearby Weather Stations

Elev 2822 ft 31.78 °N, 103.20 °W | Updated 19 minutes ago

Overcast
Overcast
57 °F
Feels Like 57 °F
N
7
Wind Variable Wind from North

Today
High -- | Low -- °F
--% Chance of Precip.
Yesterday
High -- | Low -- °F
Precip. -- in
6:51 AM 8:47 PM
Waxing Crescent, 20% visible
Pressure 30.00 in
Visibility 5.0 miles
Clouds Overcast 500 ft
Dew Point 54 °F
Humidity 89%
Rainfall 0.05 in
Snow Depth Not available.
UV 0 out of 12
Pollen .70 out of 12
Air Quality Not available.
Flu Activity Sporadic
METAR KINK 220853Z AUTO 01006KT 5SM BR OVC005 14/12 A3006 RMK AO2 RAE0758 SLP158 P0000 60005 T01390122 56016

More Conditions Fewer Conditions

Pressure 30.00 in
Visibility 5.0 miles
Clouds Overcast 500 ft
Dew Point 54 °F
Humidity 89%
Rainfall 0.05 in
Snow Depth Not available.
UV 0 out of 12
Pollen .70 out of 12
Air Quality Not available.
Flu Activity Sporadic
METAR KINK 220853Z AUTO 01006KT 5SM BR OVC005 14/12 A3006 RMK AO2 RAE0758 SLP158 P0000 60005 T01390122 56016

More Conditions Fewer Conditions

10-Day Weather Forecast

Almanac

Astronomy

May. 22, 2015 Rise Set
Actual Time
Civil Twilight
Nautical Twilight
Astronomical Twilight
Moon
Length of Visible Light
Length of Day
Tomorrow will be .
, % of the Moon is Illuminated

Today's Extremes

State Highs State Lows

Community

WunderPhotos

Upload Photos

1,823,195 photos uploaded!

WunderBlogs® & News

Nearby

Air Quality

  Air Quality AQ Index Pollutant
Not available.

Snow Depth

Station Depth Elevation

Earthquake Activity

City Distance Mag. Time & Date
Minimum magnitude displayed is 2.5.

Coastal Water Temperatures

Place Temperature

Stations

Nearby Weather Stations

Station Location Temp. Windchill Dew Point Humidity Wind Precip. Elev Updated Type